PWSweather.com
Personal Weather Stations
Station Observations
KOHAVON11
Long Road Station, Avon, OH 44011

Long Road StationAvon, OH 44011

Lat: 41.437, Lon: -82.0477

Elevation: 686

Station Type: Davis Vantage Pro2

http://www.avon-weather.com

Latest ConditionsUpdated 10:14:56 AM EDT Monday, Jun 17, 2019
Currently Today's Max Today's Min Today's Average
Temperature 62.2°F16.8°C 62.2°F16.8°C 59.5°F15.3°C 60.4°F15.8°C
Dew Point 58.9°F14.9°C 58.9°F14.9°C 56.5°F13.6°C 57.3°F14.1°C
Winds Calm Calm 6.0 mph -9.7 kmh - - 0.8 mph 1.3 kmh
Wind Gusts 1.0 mph1.6 kmh 8.0 mph12.9 kmh - -
Humidity 89% 90% 89% 89%
Pressure 29.95 in1014.2 mb 29.95 in1014.2 mb 29.87 in1011.5 mb -
Hour Temp Dew Point Humidity Winds Wind Gusts Pressure Precip Precip Rate Daily Precip Total
10:14 AM 62.2°F16.8°C 58.9°F14.9°C 89% Calm Calm 1.0 mph1.6 kmh 29.95 in1014.2 mb 0.00 in0.0 mm 0.00 in0.0 mm 0.00 in0.0 mm
10:09 AM 62.2°F16.8°C 58.9°F14.9°C 89% Calm Calm 5.0 mph8.0 kmh 29.95 in1014.2 mb 0.00 in0.0 mm 0.00 in0.0 mm 0.00 in0.0 mm
10:04 AM 62.1°F16.7°C 58.8°F14.9°C 89% 1.0 mph N1.6 kmh N 5.0 mph8.0 kmh 29.95 in1014.2 mb 0.00 in0.0 mm 0.00 in0.0 mm 0.00 in0.0 mm
09:59 AM 62.1°F16.7°C 58.8°F14.9°C 89% 3.0 mph NE4.8 kmh NE 5.0 mph8.0 kmh 29.94 in1013.9 mb 0.00 in0.0 mm 0.00 in0.0 mm 0.00 in0.0 mm
09:54 AM 62.0°F16.7°C 58.7°F14.8°C 89% 3.0 mph NE4.8 kmh NE 3.0 mph4.8 kmh 29.94 in1013.9 mb 0.00 in0.0 mm 0.00 in0.0 mm 0.00 in0.0 mm
09:49 AM 62.0°F16.7°C 58.7°F14.8°C 89% Calm Calm 2.0 mph3.2 kmh 29.94 in1013.9 mb 0.00 in0.0 mm 0.00 in0.0 mm 0.00 in0.0 mm
09:44 AM 62.1°F16.7°C 58.8°F14.9°C 89% 2.0 mph E3.2 kmh E 4.0 mph6.4 kmh 29.94 in1013.9 mb 0.00 in0.0 mm 0.00 in0.0 mm 0.00 in0.0 mm
09:39 AM 62.1°F16.7°C 58.8°F14.9°C 89% Calm Calm 4.0 mph6.4 kmh 29.94 in1013.9 mb 0.00 in0.0 mm 0.00 in0.0 mm 0.00 in0.0 mm
09:34 AM 61.9°F16.6°C 58.6°F14.8°C 89% 2.0 mph E3.2 kmh E 4.0 mph6.4 kmh 29.94 in1013.9 mb 0.00 in0.0 mm 0.00 in0.0 mm 0.00 in0.0 mm
09:29 AM 61.7°F16.5°C 58.4°F14.7°C 89% Calm Calm -- 29.94 in1013.9 mb 0.00 in0.0 mm 0.00 in0.0 mm 0.00 in0.0 mm
09:24 AM 61.7°F16.5°C 58.4°F14.7°C 89% Calm Calm 6.0 mph9.7 kmh 29.94 in1013.9 mb 0.00 in0.0 mm 0.00 in0.0 mm 0.00 in0.0 mm
09:19 AM 61.6°F16.4°C 58.3°F14.6°C 89% Calm Calm 6.0 mph9.7 kmh 29.94 in1013.9 mb 0.00 in0.0 mm 0.00 in0.0 mm 0.00 in0.0 mm
09:14 AM 61.4°F16.3°C 58.1°F14.5°C 89% 4.0 mph NE6.4 kmh NE 6.0 mph9.7 kmh 29.94 in1013.9 mb 0.00 in0.0 mm 0.00 in0.0 mm 0.00 in0.0 mm
09:09 AM 61.3°F16.3°C 58.0°F14.4°C 89% 4.0 mph NE6.4 kmh NE 5.0 mph8.0 kmh 29.94 in1013.9 mb 0.00 in0.0 mm 0.00 in0.0 mm 0.00 in0.0 mm
09:04 AM 61.2°F16.2°C 57.9°F14.4°C 89% 1.0 mph NNE1.6 kmh NNE 5.0 mph8.0 kmh 29.93 in1013.5 mb 0.00 in0.0 mm 0.00 in0.0 mm 0.00 in0.0 mm
08:59 AM 61.1°F16.2°C 57.8°F14.3°C 89% 4.0 mph NE6.4 kmh NE 8.0 mph12.9 kmh 29.93 in1013.5 mb 0.00 in0.0 mm 0.00 in0.0 mm 0.00 in0.0 mm
08:54 AM 61.0°F16.1°C 57.7°F14.3°C 89% 5.0 mph 8.0 kmh 8.0 mph12.9 kmh 29.93 in1013.5 mb 0.00 in0.0 mm 0.00 in0.0 mm 0.00 in0.0 mm
08:49 AM 60.9°F16.1°C 57.6°F14.2°C 89% 4.0 mph NNE6.4 kmh NNE 8.0 mph12.9 kmh 29.93 in1013.5 mb 0.00 in0.0 mm 0.00 in0.0 mm 0.00 in0.0 mm
08:44 AM 60.8°F16.0°C 57.5°F14.2°C 89% 2.0 mph NNE3.2 kmh NNE 8.0 mph12.9 kmh 29.93 in1013.5 mb 0.00 in0.0 mm 0.00 in0.0 mm 0.00 in0.0 mm
08:39 AM 60.8°F16.0°C 57.5°F14.2°C 89% 4.0 mph NE6.4 kmh NE 5.0 mph8.0 kmh 29.93 in1013.5 mb 0.00 in0.0 mm 0.00 in0.0 mm 0.00 in0.0 mm
08:34 AM 60.9°F16.1°C 57.6°F14.2°C 89% 2.0 mph NE3.2 kmh NE 5.0 mph8.0 kmh 29.93 in1013.5 mb 0.00 in0.0 mm 0.00 in0.0 mm 0.00 in0.0 mm
08:29 AM 60.8°F16.0°C 57.5°F14.2°C 89% 2.0 mph NE3.2 kmh NE 5.0 mph8.0 kmh 29.93 in1013.5 mb 0.00 in0.0 mm 0.00 in0.0 mm 0.00 in0.0 mm
08:24 AM 60.7°F15.9°C 57.4°F14.1°C 89% 3.0 mph NNE4.8 kmh NNE 5.0 mph8.0 kmh 29.93 in1013.5 mb 0.00 in0.0 mm 0.00 in0.0 mm 0.00 in0.0 mm
08:19 AM 60.6°F15.9°C 57.3°F14.1°C 89% 1.0 mph NE1.6 kmh NE 4.0 mph6.4 kmh 29.93 in1013.5 mb 0.00 in0.0 mm 0.00 in0.0 mm 0.00 in0.0 mm
08:14 AM 60.5°F15.8°C 57.2°F14.0°C 89% Calm Calm 5.0 mph8.0 kmh 29.93 in1013.5 mb 0.00 in0.0 mm 0.00 in0.0 mm 0.00 in0.0 mm
08:09 AM 60.5°F15.8°C 57.2°F14.0°C 89% 2.0 mph NW3.2 kmh NW 5.0 mph8.0 kmh 29.93 in1013.5 mb 0.00 in0.0 mm 0.00 in0.0 mm 0.00 in0.0 mm
08:04 AM 60.5°F15.8°C 57.2°F14.0°C 89% 3.0 mph NE4.8 kmh NE 5.0 mph8.0 kmh 29.93 in1013.5 mb 0.00 in0.0 mm 0.00 in0.0 mm 0.00 in0.0 mm
07:59 AM 60.4°F15.8°C 57.1°F13.9°C 89% Calm Calm 5.0 mph8.0 kmh 29.92 in1013.2 mb 0.00 in0.0 mm 0.00 in0.0 mm 0.00 in0.0 mm
07:54 AM 60.4°F15.8°C 57.1°F13.9°C 89% 4.0 mph N6.4 kmh N 5.0 mph8.0 kmh 29.92 in1013.2 mb 0.00 in0.0 mm 0.00 in0.0 mm 0.00 in0.0 mm
07:49 AM 60.4°F15.8°C 57.1°F13.9°C 89% 4.0 mph NE6.4 kmh NE 4.0 mph6.4 kmh 29.92 in1013.2 mb 0.00 in0.0 mm 0.00 in0.0 mm 0.00 in0.0 mm
07:44 AM 60.3°F15.7°C 57.0°F13.9°C 89% 2.0 mph NE3.2 kmh NE 4.0 mph6.4 kmh 29.92 in1013.2 mb 0.00 in0.0 mm 0.00 in0.0 mm 0.00 in0.0 mm
07:39 AM 60.3°F15.7°C 57.0°F13.9°C 89% Calm Calm 4.0 mph6.4 kmh 29.92 in1013.2 mb 0.00 in0.0 mm 0.00 in0.0 mm 0.00 in0.0 mm
07:34 AM 60.3°F15.7°C 57.0°F13.9°C 89% 1.0 mph NE1.6 kmh NE 4.0 mph6.4 kmh 29.92 in1013.2 mb 0.00 in0.0 mm 0.00 in0.0 mm 0.00 in0.0 mm
07:29 AM 60.3°F15.7°C 57.0°F13.9°C 89% 2.0 mph NE3.2 kmh NE 4.0 mph6.4 kmh 29.91 in1012.9 mb 0.00 in0.0 mm 0.00 in0.0 mm 0.00 in0.0 mm
07:24 AM 60.3°F15.7°C 57.0°F13.9°C 89% Calm Calm 3.0 mph4.8 kmh 29.91 in1012.9 mb 0.00 in0.0 mm 0.00 in0.0 mm 0.00 in0.0 mm
07:19 AM 60.3°F15.7°C 57.0°F13.9°C 89% 2.0 mph E3.2 kmh E 3.0 mph4.8 kmh 29.91 in1012.9 mb 0.00 in0.0 mm 0.00 in0.0 mm 0.00 in0.0 mm
07:14 AM 60.2°F15.7°C 56.9°F13.8°C 89% Calm Calm 3.0 mph4.8 kmh 29.91 in1012.9 mb 0.00 in0.0 mm 0.00 in0.0 mm 0.00 in0.0 mm
07:09 AM 60.2°F15.7°C 57.2°F14.0°C 90% Calm Calm 3.0 mph4.8 kmh 29.91 in1012.9 mb 0.00 in0.0 mm 0.00 in0.0 mm 0.00 in0.0 mm
07:04 AM 60.2°F15.7°C 57.2°F14.0°C 90% 1.0 mph NE1.6 kmh NE 2.0 mph3.2 kmh 29.91 in1012.9 mb 0.00 in0.0 mm 0.00 in0.0 mm 0.00 in0.0 mm
06:59 AM 60.2°F15.7°C 57.2°F14.0°C 90% Calm Calm -- 29.91 in1012.9 mb 0.00 in0.0 mm 0.00 in0.0 mm 0.00 in0.0 mm
06:54 AM 60.2°F15.7°C 57.2°F14.0°C 90% 3.0 mph ESE4.8 kmh ESE 3.0 mph4.8 kmh 29.91 in1012.9 mb 0.00 in0.0 mm 0.00 in0.0 mm 0.00 in0.0 mm
06:49 AM 60.2°F15.7°C 57.2°F14.0°C 90% 2.0 mph NE3.2 kmh NE 6.0 mph9.7 kmh 29.91 in1012.9 mb 0.00 in0.0 mm 0.00 in0.0 mm 0.00 in0.0 mm
06:44 AM 60.3°F15.7°C 57.3°F14.1°C 90% 2.0 mph NE3.2 kmh NE 6.0 mph9.7 kmh 29.90 in1012.5 mb 0.00 in0.0 mm 0.00 in0.0 mm 0.00 in0.0 mm
06:39 AM 60.3°F15.7°C 57.3°F14.1°C 90% 1.0 mph NNW1.6 kmh NNW 6.0 mph9.7 kmh 29.90 in1012.5 mb 0.00 in0.0 mm 0.00 in0.0 mm 0.00 in0.0 mm
06:34 AM 60.3°F15.7°C 57.3°F14.1°C 90% 2.0 mph N3.2 kmh N 6.0 mph9.7 kmh 29.90 in1012.5 mb 0.00 in0.0 mm 0.00 in0.0 mm 0.00 in0.0 mm
06:29 AM 60.4°F15.8°C 57.1°F13.9°C 89% Calm Calm 3.0 mph4.8 kmh 29.90 in1012.5 mb 0.00 in0.0 mm 0.00 in0.0 mm 0.00 in0.0 mm
06:24 AM 60.4°F15.8°C 57.1°F13.9°C 89% Calm Calm 6.0 mph9.7 kmh 29.89 in1012.2 mb 0.00 in0.0 mm 0.00 in0.0 mm 0.00 in0.0 mm
06:19 AM 60.5°F15.8°C 57.2°F14.0°C 89% 3.0 mph NE4.8 kmh NE 6.0 mph9.7 kmh 29.89 in1012.2 mb 0.00 in0.0 mm 0.00 in0.0 mm 0.00 in0.0 mm
06:14 AM 60.5°F15.8°C 57.2°F14.0°C 89% 2.0 mph NE3.2 kmh NE 7.0 mph11.3 kmh 29.89 in1012.2 mb 0.00 in0.0 mm 0.00 in0.0 mm 0.00 in0.0 mm
06:09 AM 60.6°F15.9°C 57.3°F14.1°C 89% 2.0 mph NNE3.2 kmh NNE 7.0 mph11.3 kmh 29.89 in1012.2 mb 0.00 in0.0 mm 0.00 in0.0 mm 0.00 in0.0 mm
06:04 AM 60.6°F15.9°C 57.3°F14.1°C 89% 3.0 mph E4.8 kmh E 7.0 mph11.3 kmh 29.89 in1012.2 mb 0.00 in0.0 mm 0.00 in0.0 mm 0.00 in0.0 mm
05:59 AM 60.7°F15.9°C 57.4°F14.1°C 89% 6.0 mph NE9.7 kmh NE 7.0 mph11.3 kmh 29.89 in1012.2 mb 0.00 in0.0 mm 0.00 in0.0 mm 0.00 in0.0 mm
05:54 AM 60.6°F15.9°C 57.3°F14.1°C 89% 2.0 mph NE3.2 kmh NE 6.0 mph9.7 kmh 29.89 in1012.2 mb 0.00 in0.0 mm 0.00 in0.0 mm 0.00 in0.0 mm
05:49 AM 60.6°F15.9°C 57.3°F14.1°C 89% 3.0 mph NE4.8 kmh NE 6.0 mph9.7 kmh 29.88 in1011.9 mb 0.00 in0.0 mm 0.00 in0.0 mm 0.00 in0.0 mm
05:44 AM 60.5°F15.8°C 57.2°F14.0°C 89% 2.0 mph NE3.2 kmh NE 4.0 mph6.4 kmh 29.89 in1012.2 mb 0.00 in0.0 mm 0.00 in0.0 mm 0.00 in0.0 mm
05:39 AM 60.5°F15.8°C 57.2°F14.0°C 89% Calm Calm 2.0 mph3.2 kmh 29.89 in1012.2 mb 0.00 in0.0 mm 0.00 in0.0 mm 0.00 in0.0 mm
05:34 AM 60.5°F15.8°C 57.2°F14.0°C 89% Calm Calm -- 29.88 in1011.9 mb 0.00 in0.0 mm 0.00 in0.0 mm 0.00 in0.0 mm
05:29 AM 60.5°F15.8°C 57.2°F14.0°C 89% Calm Calm -- 29.89 in1012.2 mb 0.00 in0.0 mm 0.00 in0.0 mm 0.00 in0.0 mm
05:24 AM 60.5°F15.8°C 57.2°F14.0°C 89% Calm Calm -- 29.89 in1012.2 mb 0.00 in0.0 mm 0.00 in0.0 mm 0.00 in0.0 mm
05:19 AM 60.4°F15.8°C 57.1°F13.9°C 89% Calm Calm -- 29.89 in1012.2 mb 0.00 in0.0 mm 0.00 in0.0 mm 0.00 in0.0 mm
05:14 AM 60.4°F15.8°C 57.1°F13.9°C 89% Calm Calm -- 29.89 in1012.2 mb 0.00 in0.0 mm 0.00 in0.0 mm 0.00 in0.0 mm
05:09 AM 60.4°F15.8°C 57.1°F13.9°C 89% Calm Calm -- 29.89 in1012.2 mb 0.00 in0.0 mm 0.00 in0.0 mm 0.00 in0.0 mm
05:04 AM 60.4°F15.8°C 57.1°F13.9°C 89% 2.0 mph NE3.2 kmh NE 2.0 mph3.2 kmh 29.89 in1012.2 mb 0.00 in0.0 mm 0.00 in0.0 mm 0.00 in0.0 mm
04:59 AM 60.3°F15.7°C 57.0°F13.9°C 89% Calm Calm -- 29.89 in1012.2 mb 0.00 in0.0 mm 0.00 in0.0 mm 0.00 in0.0 mm
04:54 AM 60.3°F15.7°C 57.0°F13.9°C 89% Calm Calm -- 29.89 in1012.2 mb 0.00 in0.0 mm 0.00 in0.0 mm 0.00 in0.0 mm
04:49 AM 60.4°F15.8°C 57.1°F13.9°C 89% Calm Calm -- 29.89 in1012.2 mb 0.00 in0.0 mm 0.00 in0.0 mm 0.00 in0.0 mm
04:44 AM 60.4°F15.8°C 57.1°F13.9°C 89% Calm Calm 2.0 mph3.2 kmh 29.89 in1012.2 mb 0.00 in0.0 mm 0.00 in0.0 mm 0.00 in0.0 mm
04:39 AM 60.3°F15.7°C 57.0°F13.9°C 89% Calm Calm 1.0 mph1.6 kmh 29.89 in1012.2 mb 0.00 in0.0 mm 0.00 in0.0 mm 0.00 in0.0 mm
04:34 AM 60.4°F15.8°C 57.1°F13.9°C 89% Calm Calm -- 29.89 in1012.2 mb 0.00 in0.0 mm 0.00 in0.0 mm 0.00 in0.0 mm
04:29 AM 60.3°F15.7°C 57.0°F13.9°C 89% 1.0 mph S1.6 kmh S 1.0 mph1.6 kmh 29.89 in1012.2 mb 0.00 in0.0 mm 0.00 in0.0 mm 0.00 in0.0 mm
04:24 AM 60.3°F15.7°C 57.3°F14.1°C 90% Calm Calm 1.0 mph1.6 kmh 29.89 in1012.2 mb 0.00 in0.0 mm 0.00 in0.0 mm 0.00 in0.0 mm
04:19 AM 60.3°F15.7°C 57.3°F14.1°C 90% Calm Calm -- 29.88 in1011.9 mb 0.00 in0.0 mm 0.00 in0.0 mm 0.00 in0.0 mm
04:14 AM 60.3°F15.7°C 57.3°F14.1°C 90% Calm Calm -- 29.88 in1011.9 mb 0.00 in0.0 mm 0.00 in0.0 mm 0.00 in0.0 mm
04:09 AM 60.3°F15.7°C 57.3°F14.1°C 90% Calm Calm -- 29.89 in1012.2 mb 0.00 in0.0 mm 0.00 in0.0 mm 0.00 in0.0 mm
04:04 AM 60.3°F15.7°C 57.3°F14.1°C 90% Calm Calm -- 29.88 in1011.9 mb 0.00 in0.0 mm 0.00 in0.0 mm 0.00 in0.0 mm
03:59 AM 60.3°F15.7°C 57.3°F14.1°C 90% Calm Calm -- 29.88 in1011.9 mb 0.00 in0.0 mm 0.00 in0.0 mm 0.00 in0.0 mm
03:54 AM 60.3°F15.7°C 57.3°F14.1°C 90% Calm Calm -- 29.89 in1012.2 mb 0.00 in0.0 mm 0.00 in0.0 mm 0.00 in0.0 mm
03:49 AM 60.2°F15.7°C 57.2°F14.0°C 90% Calm Calm -- 29.88 in1011.9 mb 0.00 in0.0 mm 0.00 in0.0 mm 0.00 in0.0 mm
03:44 AM 60.2°F15.7°C 57.2°F14.0°C 90% Calm Calm -- 29.89 in1012.2 mb 0.00 in0.0 mm 0.00 in0.0 mm 0.00 in0.0 mm
03:39 AM 60.2°F15.7°C 57.2°F14.0°C 90% Calm Calm -- 29.89 in1012.2 mb 0.00 in0.0 mm 0.00 in0.0 mm 0.00 in0.0 mm
03:34 AM 60.2°F15.7°C 57.2°F14.0°C 90% Calm Calm -- 29.89 in1012.2 mb 0.00 in0.0 mm 0.00 in0.0 mm 0.00 in0.0 mm
03:29 AM 60.2°F15.7°C 57.2°F14.0°C 90% Calm Calm -- 29.89 in1012.2 mb 0.00 in0.0 mm 0.00 in0.0 mm 0.00 in0.0 mm
03:24 AM 60.2°F15.7°C 57.2°F14.0°C 90% Calm Calm -- 29.89 in1012.2 mb 0.00 in0.0 mm 0.00 in0.0 mm 0.00 in0.0 mm
03:19 AM 60.2°F15.7°C 57.2°F14.0°C 90% Calm Calm -- 29.89 in1012.2 mb 0.00 in0.0 mm 0.00 in0.0 mm 0.00 in0.0 mm
03:14 AM 60.2°F15.7°C 57.2°F14.0°C 90% Calm Calm -- 29.88 in1011.9 mb 0.00 in0.0 mm 0.00 in0.0 mm 0.00 in0.0 mm
03:09 AM 60.2°F15.7°C 57.2°F14.0°C 90% Calm Calm -- 29.88 in1011.9 mb 0.00 in0.0 mm 0.00 in0.0 mm 0.00 in0.0 mm
03:04 AM 60.2°F15.7°C 57.2°F14.0°C 90% Calm Calm -- 29.88 in1011.9 mb 0.00 in0.0 mm 0.00 in0.0 mm 0.00 in0.0 mm
02:59 AM 60.2°F15.7°C 57.2°F14.0°C 90% Calm Calm -- 29.87 in1011.5 mb 0.00 in0.0 mm 0.00 in0.0 mm 0.00 in0.0 mm
02:54 AM 60.2°F15.7°C 57.2°F14.0°C 90% Calm Calm -- 29.87 in1011.5 mb 0.00 in0.0 mm 0.00 in0.0 mm 0.00 in0.0 mm
02:49 AM 60.2°F15.7°C 57.2°F14.0°C 90% Calm Calm -- 29.88 in1011.9 mb 0.00 in0.0 mm 0.00 in0.0 mm 0.00 in0.0 mm
02:44 AM 60.2°F15.7°C 57.2°F14.0°C 90% Calm Calm -- 29.88 in1011.9 mb 0.00 in0.0 mm 0.00 in0.0 mm 0.00 in0.0 mm
02:39 AM 60.1°F15.6°C 57.1°F13.9°C 90% Calm Calm -- 29.88 in1011.9 mb 0.00 in0.0 mm 0.00 in0.0 mm 0.00 in0.0 mm
02:34 AM 60.1°F15.6°C 57.1°F13.9°C 90% Calm Calm -- 29.88 in1011.9 mb 0.00 in0.0 mm 0.00 in0.0 mm 0.00 in0.0 mm
02:29 AM 60.1°F15.6°C 57.1°F13.9°C 90% Calm Calm -- 29.88 in1011.9 mb 0.00 in0.0 mm 0.00 in0.0 mm 0.00 in0.0 mm
02:24 AM 60.1°F15.6°C 57.1°F13.9°C 90% Calm Calm -- 29.88 in1011.9 mb 0.00 in0.0 mm 0.00 in0.0 mm 0.00 in0.0 mm
02:19 AM 60.1°F15.6°C 57.1°F13.9°C 90% Calm Calm -- 29.88 in1011.9 mb 0.00 in0.0 mm 0.00 in0.0 mm 0.00 in0.0 mm
02:14 AM 60.0°F15.6°C 57.0°F13.9°C 90% Calm Calm -- 29.88 in1011.9 mb 0.00 in0.0 mm 0.00 in0.0 mm 0.00 in0.0 mm
02:09 AM 60.0°F15.6°C 57.0°F13.9°C 90% Calm Calm -- 29.88 in1011.9 mb 0.00 in0.0 mm 0.00 in0.0 mm 0.00 in0.0 mm
02:04 AM 60.0°F15.6°C 57.0°F13.9°C 90% Calm Calm -- 29.88 in1011.9 mb 0.00 in0.0 mm 0.00 in0.0 mm 0.00 in0.0 mm
01:59 AM 60.0°F15.6°C 57.0°F13.9°C 90% Calm Calm -- 29.89 in1012.2 mb 0.00 in0.0 mm 0.00 in0.0 mm 0.00 in0.0 mm
01:54 AM 59.9°F15.5°C 56.9°F13.8°C 90% Calm Calm -- 29.88 in1011.9 mb 0.00 in0.0 mm 0.00 in0.0 mm 0.00 in0.0 mm
01:49 AM 59.9°F15.5°C 56.9°F13.8°C 90% Calm Calm -- 29.88 in1011.9 mb 0.00 in0.0 mm 0.00 in0.0 mm 0.00 in0.0 mm
01:44 AM 59.9°F15.5°C 56.9°F13.8°C 90% Calm Calm -- 29.88 in1011.9 mb 0.00 in0.0 mm 0.00 in0.0 mm 0.00 in0.0 mm
01:39 AM 59.9°F15.5°C 56.9°F13.8°C 90% Calm Calm -- 29.88 in1011.9 mb 0.00 in0.0 mm 0.00 in0.0 mm 0.00 in0.0 mm
01:34 AM 59.9°F15.5°C 56.9°F13.8°C 90% Calm Calm -- 29.88 in1011.9 mb 0.00 in0.0 mm 0.00 in0.0 mm 0.00 in0.0 mm
01:29 AM 59.8°F15.4°C 56.8°F13.8°C 90% Calm Calm -- 29.87 in1011.5 mb 0.00 in0.0 mm 0.00 in0.0 mm 0.00 in0.0 mm
01:24 AM 59.8°F15.4°C 56.8°F13.8°C 90% Calm Calm -- 29.87 in1011.5 mb 0.00 in0.0 mm 0.00 in0.0 mm 0.00 in0.0 mm
01:19 AM 59.8°F15.4°C 56.8°F13.8°C 90% Calm Calm -- 29.87 in1011.5 mb 0.00 in0.0 mm 0.00 in0.0 mm 0.00 in0.0 mm
01:14 AM 59.8°F15.4°C 56.8°F13.8°C 90% Calm Calm -- 29.88 in1011.9 mb 0.00 in0.0 mm 0.00 in0.0 mm 0.00 in0.0 mm
01:09 AM 59.8°F15.4°C 56.8°F13.8°C 90% Calm Calm -- 29.87 in1011.5 mb 0.00 in0.0 mm 0.00 in0.0 mm 0.00 in0.0 mm
01:04 AM 59.8°F15.4°C 56.8°F13.8°C 90% Calm Calm -- 29.87 in1011.5 mb 0.00 in0.0 mm 0.00 in0.0 mm 0.00 in0.0 mm
12:59 AM 59.8°F15.4°C 56.8°F13.8°C 90% Calm Calm -- 29.88 in1011.9 mb 0.00 in0.0 mm 0.00 in0.0 mm 0.00 in0.0 mm
12:54 AM 59.8°F15.4°C 56.8°F13.8°C 90% Calm Calm -- 29.88 in1011.9 mb 0.00 in0.0 mm 0.00 in0.0 mm 0.00 in0.0 mm
12:49 AM 59.7°F15.4°C 56.7°F13.7°C 90% Calm Calm -- 29.88 in1011.9 mb 0.00 in0.0 mm 0.00 in0.0 mm 0.00 in0.0 mm
12:44 AM 59.7°F15.4°C 56.7°F13.7°C 90% Calm Calm -- 29.88 in1011.9 mb 0.00 in0.0 mm 0.00 in0.0 mm 0.00 in0.0 mm
12:39 AM 59.7°F15.4°C 56.7°F13.7°C 90% Calm Calm -- 29.88 in1011.9 mb 0.00 in0.0 mm 0.00 in0.0 mm 0.00 in0.0 mm
12:34 AM 59.7°F15.4°C 56.7°F13.7°C 90% Calm Calm -- 29.88 in1011.9 mb 0.00 in0.0 mm 0.00 in0.0 mm 0.00 in0.0 mm
12:29 AM 59.6°F15.3°C 56.6°F13.7°C 90% Calm Calm -- 29.89 in1012.2 mb 0.00 in0.0 mm 0.00 in0.0 mm 0.00 in0.0 mm
12:24 AM 59.6°F15.3°C 56.6°F13.7°C 90% Calm Calm -- 29.89 in1012.2 mb 0.00 in0.0 mm 0.00 in0.0 mm 0.00 in0.0 mm
12:19 AM 59.6°F15.3°C 56.6°F13.7°C 90% Calm Calm -- 29.89 in1012.2 mb 0.00 in0.0 mm 0.00 in0.0 mm 0.00 in0.0 mm
12:14 AM 59.6°F15.3°C 56.6°F13.7°C 90% Calm Calm -- 29.89 in1012.2 mb 0.00 in0.0 mm 0.00 in0.0 mm 0.00 in0.0 mm
12:09 AM 59.5°F15.3°C 56.5°F13.6°C 90% Calm Calm -- 29.89 in1012.2 mb 0.00 in0.0 mm 0.00 in0.0 mm 0.00 in0.0 mm
12:04 AM 59.5°F15.3°C 56.5°F13.6°C 90% Calm Calm -- 29.88 in1011.9 mb 0.00 in0.0 mm 0.00 in0.0 mm 0.00 in0.0 mm